sensor_id;sensor_type;location;lat;lon;timestamp;temperature;humidity
18934;DHT22;9599;53.706;10.384;2023-02-28T00:01:25;3.60;99.90
18934;DHT22;9599;53.706;10.384;2023-02-28T00:03:55;3.60;99.90
18934;DHT22;9599;53.706;10.384;2023-02-28T00:06:23;3.60;99.90
18934;DHT22;9599;53.706;10.384;2023-02-28T00:08:51;3.60;99.90
18934;DHT22;9599;53.706;10.384;2023-02-28T00:11:21;3.60;99.90
18934;DHT22;9599;53.706;10.384;2023-02-28T00:13:49;3.60;99.90
18934;DHT22;9599;53.706;10.384;2023-02-28T00:16:19;3.60;99.90
18934;DHT22;9599;53.706;10.384;2023-02-28T00:18:48;3.60;99.90
18934;DHT22;9599;53.706;10.384;2023-02-28T00:21:18;3.60;99.90
18934;DHT22;9599;53.706;10.384;2023-02-28T00:23:47;3.50;99.90
18934;DHT22;9599;53.706;10.384;2023-02-28T00:26:14;3.50;99.90
18934;DHT22;9599;53.706;10.384;2023-02-28T00:28:44;3.60;99.90
18934;DHT22;9599;53.706;10.384;2023-02-28T00:31:13;3.60;99.90
18934;DHT22;9599;53.706;10.384;2023-02-28T00:33:41;3.60;99.90
18934;DHT22;9599;53.706;10.384;2023-02-28T00:36:10;3.60;99.90
18934;DHT22;9599;53.706;10.384;2023-02-28T00:38:40;3.60;99.90
18934;DHT22;9599;53.706;10.384;2023-02-28T00:41:09;3.60;99.90
18934;DHT22;9599;53.706;10.384;2023-02-28T00:43:38;3.60;99.90
18934;DHT22;9599;53.706;10.384;2023-02-28T00:46:07;3.50;99.90
18934;DHT22;9599;53.706;10.384;2023-02-28T00:48:36;3.50;99.90
18934;DHT22;9599;53.706;10.384;2023-02-28T00:51:04;3.40;99.90
18934;DHT22;9599;53.706;10.384;2023-02-28T00:53:32;3.40;99.90
18934;DHT22;9599;53.706;10.384;2023-02-28T00:56:01;3.30;99.90
18934;DHT22;9599;53.706;10.384;2023-02-28T00:58:31;3.30;99.90
18934;DHT22;9599;53.706;10.384;2023-02-28T01:00:59;3.20;99.90
18934;DHT22;9599;53.706;10.384;2023-02-28T01:03:27;3.30;99.90
18934;DHT22;9599;53.706;10.384;2023-02-28T01:05:55;3.20;99.90
18934;DHT22;9599;53.706;10.384;2023-02-28T01:08:24;3.20;99.90
18934;DHT22;9599;53.706;10.384;2023-02-28T01:10:52;3.20;99.90
18934;DHT22;9599;53.706;10.384;2023-02-28T01:13:23;3.20;99.90
18934;DHT22;9599;53.706;10.384;2023-02-28T01:15:54;3.20;99.90
18934;DHT22;9599;53.706;10.384;2023-02-28T01:18:24;3.20;99.90
18934;DHT22;9599;53.706;10.384;2023-02-28T01:20:52;3.20;99.90
18934;DHT22;9599;53.706;10.384;2023-02-28T01:23:21;3.20;99.90
18934;DHT22;9599;53.706;10.384;2023-02-28T01:25:50;3.20;99.90
18934;DHT22;9599;53.706;10.384;2023-02-28T01:28:18;3.20;99.90
18934;DHT22;9599;53.706;10.384;2023-02-28T01:30:49;3.10;99.90
18934;DHT22;9599;53.706;10.384;2023-02-28T01:33:17;3.20;99.90
18934;DHT22;9599;53.706;10.384;2023-02-28T01:35:45;3.10;99.90
18934;DHT22;9599;53.706;10.384;2023-02-28T01:38:13;3.10;99.90
18934;DHT22;9599;53.706;10.384;2023-02-28T01:40:49;3.10;99.90
18934;DHT22;9599;53.706;10.384;2023-02-28T01:43:20;3.00;99.90
18934;DHT22;9599;53.706;10.384;2023-02-28T01:45:50;3.00;99.90
18934;DHT22;9599;53.706;10.384;2023-02-28T01:48:20;3.00;99.90
18934;DHT22;9599;53.706;10.384;2023-02-28T01:50:49;2.90;99.90
18934;DHT22;9599;53.706;10.384;2023-02-28T01:53:21;2.90;99.90
18934;DHT22;9599;53.706;10.384;2023-02-28T01:55:52;2.80;99.90
18934;DHT22;9599;53.706;10.384;2023-02-28T01:58:21;2.70;99.90
18934;DHT22;9599;53.706;10.384;2023-02-28T02:00:50;2.70;99.90
18934;DHT22;9599;53.706;10.384;2023-02-28T02:03:20;2.70;99.90
18934;DHT22;9599;53.706;10.384;2023-02-28T02:05:48;2.70;99.90
18934;DHT22;9599;53.706;10.384;2023-02-28T02:08:18;2.70;99.90
18934;DHT22;9599;53.706;10.384;2023-02-28T02:10:49;2.70;99.90
18934;DHT22;9599;53.706;10.384;2023-02-28T02:13:38;2.70;99.90
18934;DHT22;9599;53.706;10.384;2023-02-28T02:16:22;2.70;99.90
18934;DHT22;9599;53.706;10.384;2023-02-28T02:18:57;2.80;99.90
18934;DHT22;9599;53.706;10.384;2023-02-28T02:25:04;2.60;99.90
18934;DHT22;9599;53.706;10.384;2023-02-28T02:28:01;2.60;99.90
18934;DHT22;9599;53.706;10.384;2023-02-28T02:31:05;2.50;99.90
18934;DHT22;9599;53.706;10.384;2023-02-28T02:34:07;2.40;99.90
18934;DHT22;9599;53.706;10.384;2023-02-28T02:36:39;2.40;99.90
18934;DHT22;9599;53.706;10.384;2023-02-28T02:39:16;2.40;99.90
18934;DHT22;9599;53.706;10.384;2023-02-28T02:41:49;2.30;99.90
18934;DHT22;9599;53.706;10.384;2023-02-28T02:44:21;2.30;99.90
18934;DHT22;9599;53.706;10.384;2023-02-28T02:46:51;2.20;99.90
18934;DHT22;9599;53.706;10.384;2023-02-28T02:49:26;2.10;99.90
18934;DHT22;9599;53.706;10.384;2023-02-28T02:51:55;2.10;99.90
18934;DHT22;9599;53.706;10.384;2023-02-28T02:54:27;2.00;99.90
18934;DHT22;9599;53.706;10.384;2023-02-28T02:56:58;1.90;99.90
18934;DHT22;9599;53.706;10.384;2023-02-28T02:59:28;1.90;99.90
18934;DHT22;9599;53.706;10.384;2023-02-28T03:02:00;1.80;99.90
18934;DHT22;9599;53.706;10.384;2023-02-28T03:04:34;1.70;99.90
18934;DHT22;9599;53.706;10.384;2023-02-28T03:07:05;1.70;99.90
18934;DHT22;9599;53.706;10.384;2023-02-28T03:09:34;1.60;99.90
18934;DHT22;9599;53.706;10.384;2023-02-28T03:12:09;1.50;99.90
18934;DHT22;9599;53.706;10.384;2023-02-28T03:14:53;1.30;99.90
18934;DHT22;9599;53.706;10.384;2023-02-28T03:17:43;1.20;99.90
18934;DHT22;9599;53.706;10.384;2023-02-28T03:20:23;1.30;99.90
18934;DHT22;9599;53.706;10.384;2023-02-28T03:23:04;1.30;99.90
18934;DHT22;9599;53.706;10.384;2023-02-28T03:25:39;1.30;99.90
18934;DHT22;9599;53.706;10.384;2023-02-28T03:28:16;1.20;99.90
18934;DHT22;9599;53.706;10.384;2023-02-28T03:30:49;1.10;99.90
18934;DHT22;9599;53.706;10.384;2023-02-28T03:33:22;1.10;99.90
18934;DHT22;9599;53.706;10.384;2023-02-28T03:35:55;1.10;99.90
18934;DHT22;9599;53.706;10.384;2023-02-28T03:38:31;1.00;99.90
18934;DHT22;9599;53.706;10.384;2023-02-28T03:41:06;1.00;99.90
18934;DHT22;9599;53.706;10.384;2023-02-28T03:43:41;0.90;99.90
18934;DHT22;9599;53.706;10.384;2023-02-28T03:46:18;0.90;99.90
18934;DHT22;9599;53.706;10.384;2023-02-28T03:48:51;0.90;99.90
18934;DHT22;9599;53.706;10.384;2023-02-28T03:51:23;0.90;99.90
18934;DHT22;9599;53.706;10.384;2023-02-28T03:53:55;0.80;99.90
18934;DHT22;9599;53.706;10.384;2023-02-28T03:56:30;0.80;99.90
18934;DHT22;9599;53.706;10.384;2023-02-28T03:59:02;0.80;99.90
18934;DHT22;9599;53.706;10.384;2023-02-28T04:01:36;0.80;99.90
18934;DHT22;9599;53.706;10.384;2023-02-28T04:04:05;0.70;99.90
18934;DHT22;9599;53.706;10.384;2023-02-28T04:06:34;0.60;99.90
18934;DHT22;9599;53.706;10.384;2023-02-28T04:09:03;0.60;99.90
18934;DHT22;9599;53.706;10.384;2023-02-28T04:11:33;0.60;99.90
18934;DHT22;9599;53.706;10.384;2023-02-28T04:14:02;0.50;99.90
18934;DHT22;9599;53.706;10.384;2023-02-28T04:16:32;0.50;99.90
18934;DHT22;9599;53.706;10.384;2023-02-28T04:19:02;0.40;99.90
18934;DHT22;9599;53.706;10.384;2023-02-28T04:21:35;0.40;99.90
18934;DHT22;9599;53.706;10.384;2023-02-28T04:24:04;0.40;99.90
18934;DHT22;9599;53.706;10.384;2023-02-28T04:26:33;0.40;99.90
18934;DHT22;9599;53.706;10.384;2023-02-28T04:29:03;0.40;99.90
18934;DHT22;9599;53.706;10.384;2023-02-28T04:31:31;0.40;99.90
18934;DHT22;9599;53.706;10.384;2023-02-28T04:33:59;0.40;99.90
18934;DHT22;9599;53.706;10.384;2023-02-28T04:36:28;0.30;99.90
18934;DHT22;9599;53.706;10.384;2023-02-28T04:38:57;0.30;99.90
18934;DHT22;9599;53.706;10.384;2023-02-28T04:41:25;0.30;99.90
18934;DHT22;9599;53.706;10.384;2023-02-28T04:43:57;0.20;99.90
18934;DHT22;9599;53.706;10.384;2023-02-28T04:46:25;0.10;99.90
18934;DHT22;9599;53.706;10.384;2023-02-28T04:48:53;0.10;99.90
18934;DHT22;9599;53.706;10.384;2023-02-28T04:51:22;0.10;99.90
18934;DHT22;9599;53.706;10.384;2023-02-28T04:53:50;0.10;99.90
18934;DHT22;9599;53.706;10.384;2023-02-28T04:56:19;0.10;99.90
18934;DHT22;9599;53.706;10.384;2023-02-28T04:58:47;0.10;99.90
18934;DHT22;9599;53.706;10.384;2023-02-28T05:01:18;0.10;99.90
18934;DHT22;9599;53.706;10.384;2023-02-28T05:03:47;0.00;99.90
18934;DHT22;9599;53.706;10.384;2023-02-28T05:06:16;0.00;99.90
18934;DHT22;9599;53.706;10.384;2023-02-28T05:08:44;0.00;99.90
18934;DHT22;9599;53.706;10.384;2023-02-28T05:11:20;-0.10;99.90
18934;DHT22;9599;53.706;10.384;2023-02-28T05:13:49;-0.10;99.90
18934;DHT22;9599;53.706;10.384;2023-02-28T05:16:17;-0.10;99.90
18934;DHT22;9599;53.706;10.384;2023-02-28T05:18:46;-0.20;99.90
18934;DHT22;9599;53.706;10.384;2023-02-28T05:21:29;-0.20;99.90
18934;DHT22;9599;53.706;10.384;2023-02-28T05:24:00;-0.20;99.90
18934;DHT22;9599;53.706;10.384;2023-02-28T05:26:30;-0.30;99.90
18934;DHT22;9599;53.706;10.384;2023-02-28T05:28:58;-0.30;99.90
18934;DHT22;9599;53.706;10.384;2023-02-28T05:31:26;-0.30;99.90
18934;DHT22;9599;53.706;10.384;2023-02-28T05:33:55;-0.30;99.90
18934;DHT22;9599;53.706;10.384;2023-02-28T05:36:23;-0.40;99.90
18934;DHT22;9599;53.706;10.384;2023-02-28T05:38:51;-0.40;99.90
18934;DHT22;9599;53.706;10.384;2023-02-28T05:41:19;-0.40;99.90
18934;DHT22;9599;53.706;10.384;2023-02-28T05:43:49;-0.40;99.90
18934;DHT22;9599;53.706;10.384;2023-02-28T05:46:17;-0.40;99.90
18934;DHT22;9599;53.706;10.384;2023-02-28T05:48:47;-0.40;99.90
18934;DHT22;9599;53.706;10.384;2023-02-28T05:51:16;-0.50;99.90
18934;DHT22;9599;53.706;10.384;2023-02-28T05:53:44;-0.50;99.90
18934;DHT22;9599;53.706;10.384;2023-02-28T05:56:12;-0.50;99.90
18934;DHT22;9599;53.706;10.384;2023-02-28T05:58:40;-0.60;99.90
18934;DHT22;9599;53.706;10.384;2023-02-28T06:01:24;-0.50;99.90
18934;DHT22;9599;53.706;10.384;2023-02-28T06:03:54;-0.60;99.90
18934;DHT22;9599;53.706;10.384;2023-02-28T06:06:22;-0.60;99.90
18934;DHT22;9599;53.706;10.384;2023-02-28T06:08:50;-0.60;99.90
18934;DHT22;9599;53.706;10.384;2023-02-28T06:11:18;-0.70;99.90
18934;DHT22;9599;53.706;10.384;2023-02-28T06:13:47;-0.70;99.90
18934;DHT22;9599;53.706;10.384;2023-02-28T06:16:15;-0.70;99.90
18934;DHT22;9599;53.706;10.384;2023-02-28T06:18:44;-0.80;99.90
18934;DHT22;9599;53.706;10.384;2023-02-28T06:21:12;-0.70;99.90
18934;DHT22;9599;53.706;10.384;2023-02-28T06:23:40;-0.70;99.90
18934;DHT22;9599;53.706;10.384;2023-02-28T06:26:08;-0.70;99.90
18934;DHT22;9599;53.706;10.384;2023-02-28T06:28:36;-0.70;99.90
18934;DHT22;9599;53.706;10.384;2023-02-28T06:31:07;-0.70;99.90
18934;DHT22;9599;53.706;10.384;2023-02-28T06:33:36;-0.70;99.90
18934;DHT22;9599;53.706;10.384;2023-02-28T06:36:06;-0.70;99.90
18934;DHT22;9599;53.706;10.384;2023-02-28T06:38:35;-0.70;99.90
18934;DHT22;9599;53.706;10.384;2023-02-28T06:41:04;-0.60;99.90
18934;DHT22;9599;53.706;10.384;2023-02-28T06:43:35;-0.60;99.90
18934;DHT22;9599;53.706;10.384;2023-02-28T06:46:06;-0.60;99.90
18934;DHT22;9599;53.706;10.384;2023-02-28T06:48:35;-0.50;99.90
18934;DHT22;9599;53.706;10.384;2023-02-28T06:51:06;-0.50;99.90
18934;DHT22;9599;53.706;10.384;2023-02-28T06:53:34;-0.50;99.90
18934;DHT22;9599;53.706;10.384;2023-02-28T06:56:04;-0.50;99.90
18934;DHT22;9599;53.706;10.384;2023-02-28T06:58:33;-0.50;99.90
18934;DHT22;9599;53.706;10.384;2023-02-28T07:01:02;-0.40;99.90
18934;DHT22;9599;53.706;10.384;2023-02-28T07:03:30;-0.40;99.90
18934;DHT22;9599;53.706;10.384;2023-02-28T07:06:00;-0.40;99.90
18934;DHT22;9599;53.706;10.384;2023-02-28T07:08:30;-0.40;99.90
18934;DHT22;9599;53.706;10.384;2023-02-28T07:10:58;-0.30;99.90
18934;DHT22;9599;53.706;10.384;2023-02-28T07:13:26;-0.30;99.90
18934;DHT22;9599;53.706;10.384;2023-02-28T07:15:55;-0.30;99.90
18934;DHT22;9599;53.706;10.384;2023-02-28T07:18:24;-0.20;99.90
18934;DHT22;9599;53.706;10.384;2023-02-28T07:20:52;-0.20;99.90
18934;DHT22;9599;53.706;10.384;2023-02-28T07:23:21;-0.10;99.90
18934;DHT22;9599;53.706;10.384;2023-02-28T07:25:51;-0.10;99.90
18934;DHT22;9599;53.706;10.384;2023-02-28T07:28:19;0.00;99.90
18934;DHT22;9599;53.706;10.384;2023-02-28T07:30:47;-0.10;99.90
18934;DHT22;9599;53.706;10.384;2023-02-28T07:33:15;0.00;99.90
18934;DHT22;9599;53.706;10.384;2023-02-28T07:35:44;0.00;99.90
18934;DHT22;9599;53.706;10.384;2023-02-28T07:38:12;0.00;99.90
18934;DHT22;9599;53.706;10.384;2023-02-28T07:40:40;0.10;99.90
18934;DHT22;9599;53.706;10.384;2023-02-28T07:43:09;0.20;99.90
18934;DHT22;9599;53.706;10.384;2023-02-28T07:45:37;0.20;99.90
18934;DHT22;9599;53.706;10.384;2023-02-28T07:48:05;0.30;99.90
18934;DHT22;9599;53.706;10.384;2023-02-28T07:50:33;0.50;99.90
18934;DHT22;9599;53.706;10.384;2023-02-28T07:53:01;0.60;99.90
18934;DHT22;9599;53.706;10.384;2023-02-28T07:55:29;0.70;99.90
18934;DHT22;9599;53.706;10.384;2023-02-28T07:57:57;0.80;99.90
18934;DHT22;9599;53.706;10.384;2023-02-28T08:00:26;1.00;99.90
18934;DHT22;9599;53.706;10.384;2023-02-28T08:02:55;1.10;99.90
18934;DHT22;9599;53.706;10.384;2023-02-28T08:05:23;1.30;99.90
18934;DHT22;9599;53.706;10.384;2023-02-28T08:07:51;1.60;99.90
18934;DHT22;9599;53.706;10.384;2023-02-28T08:10:19;1.70;99.90
18934;DHT22;9599;53.706;10.384;2023-02-28T08:12:47;1.90;99.90
18934;DHT22;9599;53.706;10.384;2023-02-28T08:15:15;2.20;99.90
18934;DHT22;9599;53.706;10.384;2023-02-28T08:17:44;2.40;99.90
18934;DHT22;9599;53.706;10.384;2023-02-28T08:20:12;2.50;99.90
18934;DHT22;9599;53.706;10.384;2023-02-28T08:22:40;2.70;99.90
18934;DHT22;9599;53.706;10.384;2023-02-28T08:25:11;2.80;99.90
18934;DHT22;9599;53.706;10.384;2023-02-28T08:27:39;3.00;99.90
18934;DHT22;9599;53.706;10.384;2023-02-28T08:30:10;3.20;99.90
18934;DHT22;9599;53.706;10.384;2023-02-28T08:32:39;3.30;99.90
18934;DHT22;9599;53.706;10.384;2023-02-28T08:35:09;3.50;99.90
18934;DHT22;9599;53.706;10.384;2023-02-28T08:37:38;3.60;99.90
18934;DHT22;9599;53.706;10.384;2023-02-28T08:40:07;3.80;99.90
18934;DHT22;9599;53.706;10.384;2023-02-28T08:42:35;3.90;99.90
18934;DHT22;9599;53.706;10.384;2023-02-28T08:45:04;4.10;99.90
18934;DHT22;9599;53.706;10.384;2023-02-28T08:47:32;4.20;99.90
18934;DHT22;9599;53.706;10.384;2023-02-28T08:50:00;4.40;99.90
18934;DHT22;9599;53.706;10.384;2023-02-28T08:52:29;4.50;99.90
18934;DHT22;9599;53.706;10.384;2023-02-28T08:54:57;4.70;99.90
18934;DHT22;9599;53.706;10.384;2023-02-28T08:57:25;4.90;99.90
18934;DHT22;9599;53.706;10.384;2023-02-28T08:59:54;5.00;99.90
18934;DHT22;9599;53.706;10.384;2023-02-28T09:02:22;5.00;99.90
18934;DHT22;9599;53.706;10.384;2023-02-28T09:04:49;5.00;99.90
18934;DHT22;9599;53.706;10.384;2023-02-28T09:07:17;5.10;99.90
18934;DHT22;9599;53.706;10.384;2023-02-28T09:09:47;5.10;99.90
18934;DHT22;9599;53.706;10.384;2023-02-28T09:12:21;5.00;99.90
18934;DHT22;9599;53.706;10.384;2023-02-28T09:14:50;5.10;99.90
18934;DHT22;9599;53.706;10.384;2023-02-28T09:17:19;5.40;99.90
18934;DHT22;9599;53.706;10.384;2023-02-28T09:19:48;5.80;99.90
18934;DHT22;9599;53.706;10.384;2023-02-28T09:22:16;6.10;99.90
18934;DHT22;9599;53.706;10.384;2023-02-28T09:24:44;6.10;99.90
18934;DHT22;9599;53.706;10.384;2023-02-28T09:27:13;6.10;99.90
18934;DHT22;9599;53.706;10.384;2023-02-28T09:29:41;6.00;99.90
18934;DHT22;9599;53.706;10.384;2023-02-28T09:32:09;5.90;99.90
18934;DHT22;9599;53.706;10.384;2023-02-28T09:34:38;5.80;99.90
18934;DHT22;9599;53.706;10.384;2023-02-28T09:37:06;5.80;99.90
18934;DHT22;9599;53.706;10.384;2023-02-28T09:39:34;5.90;99.90
18934;DHT22;9599;53.706;10.384;2023-02-28T09:42:03;5.90;99.90
18934;DHT22;9599;53.706;10.384;2023-02-28T09:44:36;6.00;99.90
18934;DHT22;9599;53.706;10.384;2023-02-28T09:47:10;6.10;99.90
18934;DHT22;9599;53.706;10.384;2023-02-28T09:49:42;6.60;99.90
18934;DHT22;9599;53.706;10.384;2023-02-28T09:52:13;6.90;99.90
18934;DHT22;9599;53.706;10.384;2023-02-28T09:54:42;7.00;99.90
18934;DHT22;9599;53.706;10.384;2023-02-28T09:57:17;7.10;99.90
18934;DHT22;9599;53.706;10.384;2023-02-28T09:59:57;7.10;99.90
18934;DHT22;9599;53.706;10.384;2023-02-28T10:05:34;7.20;99.90
18934;DHT22;9599;53.706;10.384;2023-02-28T10:08:09;7.40;99.90
18934;DHT22;9599;53.706;10.384;2023-02-28T10:10:42;7.20;99.90
18934;DHT22;9599;53.706;10.384;2023-02-28T10:13:21;7.10;99.90
18934;DHT22;9599;53.706;10.384;2023-02-28T10:15:56;7.10;99.90
18934;DHT22;9599;53.706;10.384;2023-02-28T10:18:31;7.30;99.90
18934;DHT22;9599;53.706;10.384;2023-02-28T10:21:03;7.30;99.90
18934;DHT22;9599;53.706;10.384;2023-02-28T10:23:34;7.40;99.90
18934;DHT22;9599;53.706;10.384;2023-02-28T10:26:10;7.70;99.90
18934;DHT22;9599;53.706;10.384;2023-02-28T10:28:39;7.70;99.90
18934;DHT22;9599;53.706;10.384;2023-02-28T10:31:11;7.70;99.90
18934;DHT22;9599;53.706;10.384;2023-02-28T10:33:42;7.70;99.90
18934;DHT22;9599;53.706;10.384;2023-02-28T10:36:14;7.90;99.90
18934;DHT22;9599;53.706;10.384;2023-02-28T10:38:44;8.10;99.90
18934;DHT22;9599;53.706;10.384;2023-02-28T10:41:15;8.20;99.90
18934;DHT22;9599;53.706;10.384;2023-02-28T10:43:44;8.30;99.90
18934;DHT22;9599;53.706;10.384;2023-02-28T10:46:16;8.50;99.90
18934;DHT22;9599;53.706;10.384;2023-02-28T10:49:02;8.30;99.90
18934;DHT22;9599;53.706;10.384;2023-02-28T10:51:38;8.00;99.90
18934;DHT22;9599;53.706;10.384;2023-02-28T10:54:15;7.90;99.90
18934;DHT22;9599;53.706;10.384;2023-02-28T10:56:45;7.90;99.90
18934;DHT22;9599;53.706;10.384;2023-02-28T10:59:30;7.90;99.90
18934;DHT22;9599;53.706;10.384;2023-02-28T11:01:59;7.70;99.90
18934;DHT22;9599;53.706;10.384;2023-02-28T11:04:35;7.60;99.90
18934;DHT22;9599;53.706;10.384;2023-02-28T11:07:16;7.60;99.90
18934;DHT22;9599;53.706;10.384;2023-02-28T11:09:49;7.30;99.90
18934;DHT22;9599;53.706;10.384;2023-02-28T11:12:21;7.40;99.90
18934;DHT22;9599;53.706;10.384;2023-02-28T11:14:52;7.40;99.90
18934;DHT22;9599;53.706;10.384;2023-02-28T11:17:24;7.40;99.90
18934;DHT22;9599;53.706;10.384;2023-02-28T11:19:55;7.60;99.90
18934;DHT22;9599;53.706;10.384;2023-02-28T11:22:26;7.60;99.90
18934;DHT22;9599;53.706;10.384;2023-02-28T11:24:57;7.90;99.90
18934;DHT22;9599;53.706;10.384;2023-02-28T11:27:48;7.90;99.90
18934;DHT22;9599;53.706;10.384;2023-02-28T11:30:35;7.80;99.90
18934;DHT22;9599;53.706;10.384;2023-02-28T11:33:22;7.90;99.90
18934;DHT22;9599;53.706;10.384;2023-02-28T11:35:51;8.10;99.90
18934;DHT22;9599;53.706;10.384;2023-02-28T11:38:20;8.00;99.90
18934;DHT22;9599;53.706;10.384;2023-02-28T11:40:56;8.10;99.90
18934;DHT22;9599;53.706;10.384;2023-02-28T11:43:39;8.20;99.90
18934;DHT22;9599;53.706;10.384;2023-02-28T11:46:20;8.20;99.90
18934;DHT22;9599;53.706;10.384;2023-02-28T11:49:00;7.90;99.90
18934;DHT22;9599;53.706;10.384;2023-02-28T11:51:33;7.60;99.90
18934;DHT22;9599;53.706;10.384;2023-02-28T11:54:17;7.60;99.90
18934;DHT22;9599;53.706;10.384;2023-02-28T11:56:52;7.80;99.90
18934;DHT22;9599;53.706;10.384;2023-02-28T11:59:48;8.00;99.90
18934;DHT22;9599;53.706;10.384;2023-02-28T12:02:28;8.10;99.90
18934;DHT22;9599;53.706;10.384;2023-02-28T12:05:10;8.20;99.90
18934;DHT22;9599;53.706;10.384;2023-02-28T12:07:49;8.10;99.90
18934;DHT22;9599;53.706;10.384;2023-02-28T12:10:22;8.10;99.90
18934;DHT22;9599;53.706;10.384;2023-02-28T12:13:03;8.00;99.90
18934;DHT22;9599;53.706;10.384;2023-02-28T12:15:49;8.00;99.90
18934;DHT22;9599;53.706;10.384;2023-02-28T12:18:44;8.10;99.90
18934;DHT22;9599;53.706;10.384;2023-02-28T12:21:25;8.00;99.90
18934;DHT22;9599;53.706;10.384;2023-02-28T12:24:08;8.00;99.90
18934;DHT22;9599;53.706;10.384;2023-02-28T12:26:41;7.80;99.90
18934;DHT22;9599;53.706;10.384;2023-02-28T12:29:14;7.70;99.90
18934;DHT22;9599;53.706;10.384;2023-02-28T12:31:48;7.70;99.90
18934;DHT22;9599;53.706;10.384;2023-02-28T12:34:20;7.60;99.90
18934;DHT22;9599;53.706;10.384;2023-02-28T12:36:51;7.50;99.90
18934;DHT22;9599;53.706;10.384;2023-02-28T12:39:25;7.60;99.90
18934;DHT22;9599;53.706;10.384;2023-02-28T12:41:56;7.50;99.90
18934;DHT22;9599;53.706;10.384;2023-02-28T12:44:30;7.60;99.90
18934;DHT22;9599;53.706;10.384;2023-02-28T12:47:03;7.70;99.90
18934;DHT22;9599;53.706;10.384;2023-02-28T12:49:34;7.80;99.90
18934;DHT22;9599;53.706;10.384;2023-02-28T12:52:07;7.40;99.90
18934;DHT22;9599;53.706;10.384;2023-02-28T12:54:44;7.30;99.90
18934;DHT22;9599;53.706;10.384;2023-02-28T12:57:19;7.50;99.90
18934;DHT22;9599;53.706;10.384;2023-02-28T12:59:52;7.40;99.90
18934;DHT22;9599;53.706;10.384;2023-02-28T13:06:05;7.50;99.90
18934;DHT22;9599;53.706;10.384;2023-02-28T13:08:59;7.60;99.90
18934;DHT22;9599;53.706;10.384;2023-02-28T13:11:29;7.80;99.90
18934;DHT22;9599;53.706;10.384;2023-02-28T13:14:01;7.60;99.90
18934;DHT22;9599;53.706;10.384;2023-02-28T13:16:52;7.60;99.90
18934;DHT22;9599;53.706;10.384;2023-02-28T13:19:23;7.80;99.90
18934;DHT22;9599;53.706;10.384;2023-02-28T13:21:53;7.60;99.90
18934;DHT22;9599;53.706;10.384;2023-02-28T13:27:33;7.50;99.90
18934;DHT22;9599;53.706;10.384;2023-02-28T13:33:27;7.60;99.90
18934;DHT22;9599;53.706;10.384;2023-02-28T13:36:23;7.60;99.90
18934;DHT22;9599;53.706;10.384;2023-02-28T13:38:53;7.60;99.90
18934;DHT22;9599;53.706;10.384;2023-02-28T13:41:43;7.70;99.90
18934;DHT22;9599;53.706;10.384;2023-02-28T13:44:13;7.70;99.90
18934;DHT22;9599;53.706;10.384;2023-02-28T13:47:20;7.70;99.90
18934;DHT22;9599;53.706;10.384;2023-02-28T13:49:51;7.80;99.90
18934;DHT22;9599;53.706;10.384;2023-02-28T13:52:22;7.90;99.90
18934;DHT22;9599;53.706;10.384;2023-02-28T13:55:25;7.70;99.90
18934;DHT22;9599;53.706;10.384;2023-02-28T13:58:05;7.60;99.90
18934;DHT22;9599;53.706;10.384;2023-02-28T14:00:58;7.50;99.90
18934;DHT22;9599;53.706;10.384;2023-02-28T14:06:26;7.70;99.90
18934;DHT22;9599;53.706;10.384;2023-02-28T14:08:58;7.70;99.90
18934;DHT22;9599;53.706;10.384;2023-02-28T14:11:31;7.80;99.90
18934;DHT22;9599;53.706;10.384;2023-02-28T14:14:00;7.90;99.90
18934;DHT22;9599;53.706;10.384;2023-02-28T14:16:36;8.00;99.90
18934;DHT22;9599;53.706;10.384;2023-02-28T14:19:11;7.90;99.90
18934;DHT22;9599;53.706;10.384;2023-02-28T14:21:53;7.80;99.90
18934;DHT22;9599;53.706;10.384;2023-02-28T14:24:49;7.70;99.90
18934;DHT22;9599;53.706;10.384;2023-02-28T14:27:37;7.60;99.90
18934;DHT22;9599;53.706;10.384;2023-02-28T14:33:23;7.60;99.90
18934;DHT22;9599;53.706;10.384;2023-02-28T14:36:03;7.60;99.90
18934;DHT22;9599;53.706;10.384;2023-02-28T14:38:39;7.60;99.90
18934;DHT22;9599;53.706;10.384;2023-02-28T14:41:16;7.70;99.90
18934;DHT22;9599;53.706;10.384;2023-02-28T14:43:52;7.80;99.90
18934;DHT22;9599;53.706;10.384;2023-02-28T14:46:21;7.80;99.90
18934;DHT22;9599;53.706;10.384;2023-02-28T14:48:50;7.80;99.90
18934;DHT22;9599;53.706;10.384;2023-02-28T14:51:19;7.80;99.90
18934;DHT22;9599;53.706;10.384;2023-02-28T14:53:52;7.80;99.90
18934;DHT22;9599;53.706;10.384;2023-02-28T14:56:26;7.80;99.90
18934;DHT22;9599;53.706;10.384;2023-02-28T14:58:56;7.90;99.90
18934;DHT22;9599;53.706;10.384;2023-02-28T15:01:25;7.90;99.90
18934;DHT22;9599;53.706;10.384;2023-02-28T15:04:01;7.80;99.90
18934;DHT22;9599;53.706;10.384;2023-02-28T15:06:31;7.80;99.90
18934;DHT22;9599;53.706;10.384;2023-02-28T15:09:14;7.70;99.90
18934;DHT22;9599;53.706;10.384;2023-02-28T15:11:46;7.70;99.90
18934;DHT22;9599;53.706;10.384;2023-02-28T15:14:19;7.70;99.90
18934;DHT22;9599;53.706;10.384;2023-02-28T15:16:52;7.70;99.90
18934;DHT22;9599;53.706;10.384;2023-02-28T15:19:26;7.70;99.90
18934;DHT22;9599;53.706;10.384;2023-02-28T15:21:59;7.60;99.90
18934;DHT22;9599;53.706;10.384;2023-02-28T15:24:36;7.60;99.90
18934;DHT22;9599;53.706;10.384;2023-02-28T15:27:09;7.50;99.90
18934;DHT22;9599;53.706;10.384;2023-02-28T15:29:46;7.50;99.90
18934;DHT22;9599;53.706;10.384;2023-02-28T15:32:26;7.50;99.90
18934;DHT22;9599;53.706;10.384;2023-02-28T15:34:56;7.50;99.90
18934;DHT22;9599;53.706;10.384;2023-02-28T15:37:29;7.50;99.90
18934;DHT22;9599;53.706;10.384;2023-02-28T15:40:11;7.50;99.90
18934;DHT22;9599;53.706;10.384;2023-02-28T15:42:41;7.50;99.90
18934;DHT22;9599;53.706;10.384;2023-02-28T15:45:33;7.40;99.90
18934;DHT22;9599;53.706;10.384;2023-02-28T15:48:05;7.30;99.90
18934;DHT22;9599;53.706;10.384;2023-02-28T15:50:40;7.30;99.90
18934;DHT22;9599;53.706;10.384;2023-02-28T15:53:13;7.30;99.90
18934;DHT22;9599;53.706;10.384;2023-02-28T15:55:42;7.20;99.90
18934;DHT22;9599;53.706;10.384;2023-02-28T15:58:12;7.10;99.90
18934;DHT22;9599;53.706;10.384;2023-02-28T16:00:43;7.10;99.90
18934;DHT22;9599;53.706;10.384;2023-02-28T16:03:38;7.00;99.90
18934;DHT22;9599;53.706;10.384;2023-02-28T16:06:26;7.00;99.90
18934;DHT22;9599;53.706;10.384;2023-02-28T16:08:58;6.90;99.90
18934;DHT22;9599;53.706;10.384;2023-02-28T16:11:27;6.80;99.90
18934;DHT22;9599;53.706;10.384;2023-02-28T16:13:57;6.70;99.90
18934;DHT22;9599;53.706;10.384;2023-02-28T16:16:26;6.70;99.90
18934;DHT22;9599;53.706;10.384;2023-02-28T16:18:54;6.70;99.90
18934;DHT22;9599;53.706;10.384;2023-02-28T16:21:22;6.70;99.90
18934;DHT22;9599;53.706;10.384;2023-02-28T16:23:50;6.50;99.90
18934;DHT22;9599;53.706;10.384;2023-02-28T16:26:22;6.50;99.90
18934;DHT22;9599;53.706;10.384;2023-02-28T16:28:52;6.40;99.90
18934;DHT22;9599;53.706;10.384;2023-02-28T16:31:20;6.30;99.90
18934;DHT22;9599;53.706;10.384;2023-02-28T16:33:48;6.40;99.90
18934;DHT22;9599;53.706;10.384;2023-02-28T16:36:17;6.30;99.90
18934;DHT22;9599;53.706;10.384;2023-02-28T16:38:45;6.20;99.90
18934;DHT22;9599;53.706;10.384;2023-02-28T16:41:17;6.10;99.90